createdAt,value
2022-11-25T00:01:46.070Z,1.23
2022-11-25T00:04:50.441Z,1.20
2022-11-25T00:07:55.173Z,1.10
2022-11-25T00:11:02.188Z,1.17
2022-11-25T00:14:09.978Z,1.27
2022-11-25T00:17:14.516Z,1.55
2022-11-25T00:20:21.188Z,1.30
2022-11-25T00:23:30.422Z,1.50
2022-11-25T00:26:37.913Z,1.48
2022-11-25T00:29:42.401Z,1.05
2022-11-25T00:32:46.975Z,1.35
2022-11-25T00:35:51.607Z,2.40
2022-11-25T00:39:05.899Z,1.52
2022-11-25T00:42:29.547Z,1.33
2022-11-25T00:45:34.516Z,1.50
2022-11-25T00:48:38.918Z,1.38
2022-11-25T00:51:43.321Z,0.93
2022-11-25T00:54:49.638Z,0.93
2022-11-25T00:57:53.912Z,1.50
2022-11-25T01:01:02.433Z,1.30
2022-11-25T01:04:07.553Z,1.42
2022-11-25T01:07:12.376Z,1.38
2022-11-25T01:10:16.993Z,1.33
2022-11-25T01:13:21.766Z,1.92
2022-11-25T01:16:26.866Z,1.42
2022-11-25T01:19:31.131Z,1.15
2022-11-25T01:22:37.021Z,1.63
2022-11-25T01:25:41.601Z,1.40
2022-11-25T01:28:47.270Z,1.23
2022-11-25T01:31:56.578Z,1.48
2022-11-25T01:35:01.413Z,0.93
2022-11-25T01:38:06.108Z,1.92
2022-11-25T01:41:14.136Z,1.45
2022-11-25T01:44:22.591Z,1.50
2022-11-25T01:47:27.622Z,1.50
2022-11-25T01:50:34.080Z,1.50
2022-11-25T01:53:38.530Z,1.75
2022-11-25T01:56:56.994Z,1.15
2022-11-25T02:00:05.608Z,1.20
2022-11-25T02:03:29.805Z,1.20
2022-11-25T02:06:47.100Z,1.25
2022-11-25T02:09:51.575Z,1.50
2022-11-25T02:12:57.372Z,1.33
2022-11-25T02:16:01.650Z,1.50
2022-11-25T02:19:11.552Z,1.30
2022-11-25T02:22:37.355Z,1.65
2022-11-25T02:25:43.800Z,1.10
2022-11-25T02:28:51.810Z,1.40
2022-11-25T02:31:56.433Z,1.20
2022-11-25T02:35:02.591Z,1.33
2022-11-25T02:38:12.648Z,1.10
2022-11-25T02:41:37.705Z,1.40
2022-11-25T02:44:43.704Z,1.40
2022-11-25T02:47:47.874Z,1.10
2022-11-25T02:50:52.352Z,1.10
2022-11-25T02:53:57.321Z,1.25
2022-11-25T02:57:03.533Z,1.42
2022-11-25T03:00:12.106Z,1.08
2022-11-25T03:03:18.580Z,1.13
2022-11-25T03:06:25.400Z,2.05
2022-11-25T03:09:30.891Z,1.27
2022-11-25T03:12:35.729Z,1.17
2022-11-25T03:15:40.884Z,1.10
2022-11-25T03:18:45.199Z,1.05
2022-11-25T03:21:49.592Z,1.27
2022-11-25T03:24:58.174Z,0.93
2022-11-25T03:28:10.181Z,1.02
2022-11-25T03:31:17.451Z,1.23
2022-11-25T03:34:22.724Z,0.82
2022-11-25T03:37:27.860Z,0.95
2022-11-25T03:40:33.762Z,1.10
2022-11-25T03:43:38.538Z,0.95
2022-11-25T03:46:43.619Z,0.90
2022-11-25T03:49:48.357Z,1.00
2022-11-25T03:52:53.049Z,1.27
2022-11-25T03:55:57.917Z,1.00
2022-11-25T03:59:03.551Z,0.90
2022-11-25T04:02:08.160Z,1.00
2022-11-25T04:05:12.790Z,0.90
2022-11-25T04:08:17.646Z,1.08
2022-11-25T04:11:43.451Z,0.80
2022-11-25T04:14:50.152Z,0.93
2022-11-25T04:17:55.310Z,1.00
2022-11-25T04:20:59.536Z,0.95
2022-11-25T04:24:04.170Z,1.55
2022-11-25T04:27:08.580Z,1.10
2022-11-25T04:30:14.062Z,0.93
2022-11-25T04:33:20.881Z,1.20
2022-11-25T04:36:26.223Z,0.90
2022-11-25T04:39:31.269Z,1.20
2022-11-25T04:42:39.854Z,1.00
2022-11-25T04:46:13.156Z,1.10
2022-11-25T04:49:17.826Z,1.30
2022-11-25T04:52:22.834Z,0.90
2022-11-25T04:55:27.497Z,1.23
2022-11-25T04:58:51.692Z,1.02
2022-11-25T05:01:56.005Z,1.27
2022-11-25T05:05:13.995Z,1.00
2022-11-25T05:08:18.760Z,1.02
2022-11-25T05:11:23.916Z,1.13
2022-11-25T05:14:29.802Z,1.17
2022-11-25T05:17:35.280Z,1.00
2022-11-25T05:20:39.797Z,1.10
2022-11-25T05:23:45.166Z,1.20
2022-11-25T05:26:49.603Z,1.42
2022-11-25T05:29:56.155Z,1.00
2022-11-25T05:33:02.197Z,0.90
2022-11-25T05:36:07.425Z,1.10
2022-11-25T05:39:19.200Z,1.05
2022-11-25T05:42:42.793Z,1.00
2022-11-25T05:45:47.897Z,1.33
2022-11-25T05:48:56.135Z,1.00
2022-11-25T05:52:01.326Z,1.30
2022-11-25T05:55:10.830Z,1.20
2022-11-25T05:58:15.633Z,1.00
2022-11-25T06:01:23.875Z,1.00
2022-11-25T06:04:28.238Z,0.88
2022-11-25T06:07:32.526Z,1.08
2022-11-25T06:10:41.508Z,1.48
2022-11-25T06:13:46.265Z,1.05
2022-11-25T06:16:51.763Z,1.17
2022-11-25T06:20:11.017Z,0.88
2022-11-25T06:23:15.641Z,1.00
2022-11-25T06:26:22.228Z,1.27
2022-11-25T06:29:27.793Z,1.30
2022-11-25T06:32:37.371Z,1.20
2022-11-25T06:35:54.317Z,1.00
2022-11-25T06:38:58.623Z,1.50
2022-11-25T06:42:03.057Z,1.20
2022-11-25T06:45:08.870Z,1.10
2022-11-25T06:48:13.842Z,1.00
2022-11-25T06:51:18.726Z,1.35
2022-11-25T06:54:23.174Z,1.00
2022-11-25T06:57:27.932Z,0.82
2022-11-25T07:00:32.687Z,1.13
2022-11-25T07:03:37.352Z,1.10
2022-11-25T07:06:41.984Z,0.90
2022-11-25T07:09:47.548Z,0.80
2022-11-25T07:12:52.532Z,1.35
2022-11-25T07:16:00.865Z,0.90
2022-11-25T07:19:05.793Z,1.20
2022-11-25T07:22:10.488Z,1.00
2022-11-25T07:25:15.322Z,0.60
2022-11-25T07:28:19.774Z,0.82
2022-11-25T07:31:33.306Z,0.80
2022-11-25T07:34:39.080Z,1.00
2022-11-25T07:37:43.729Z,1.00
2022-11-25T07:40:50.524Z,0.88
2022-11-25T07:43:59.170Z,0.82
2022-11-25T07:47:04.323Z,0.90
2022-11-25T07:50:09.643Z,0.90
2022-11-25T07:53:14.254Z,0.70
2022-11-25T07:56:19.066Z,0.90
2022-11-25T07:59:23.956Z,0.77
2022-11-25T08:02:28.555Z,1.02
2022-11-25T08:05:34.034Z,0.85
2022-11-25T08:08:40.364Z,0.85
2022-11-25T08:11:45.237Z,1.08
2022-11-25T08:14:49.462Z,0.80
2022-11-25T08:17:53.964Z,0.82
2022-11-25T08:21:09.031Z,0.75
2022-11-25T08:24:19.944Z,0.82
2022-11-25T08:27:24.619Z,0.88
2022-11-25T08:30:29.036Z,0.77
2022-11-25T08:33:34.037Z,0.90
2022-11-25T08:36:41.443Z,0.77
2022-11-25T08:39:52.810Z,0.93
2022-11-25T08:42:58.411Z,1.02
2022-11-25T08:46:13.672Z,0.70
2022-11-25T08:49:19.787Z,0.70
2022-11-25T08:52:24.737Z,0.90
2022-11-25T08:55:29.462Z,0.90
2022-11-25T08:58:34.772Z,0.75
2022-11-25T09:01:39.411Z,0.77
2022-11-25T09:04:44.577Z,0.98
2022-11-25T09:07:49.482Z,0.85
2022-11-25T09:10:54.611Z,0.80
2022-11-25T09:13:59.201Z,0.90
2022-11-25T09:17:12.154Z,0.75
2022-11-25T09:20:16.758Z,0.70
2022-11-25T09:23:23.316Z,1.00
2022-11-25T09:26:32.170Z,1.08
2022-11-25T09:29:37.132Z,1.05
2022-11-25T09:32:42.349Z,0.93
2022-11-25T09:35:47.465Z,0.90
2022-11-25T09:38:52.689Z,1.00
2022-11-25T09:42:40.563Z,0.90
2022-11-25T09:46:20.389Z,0.80
2022-11-25T09:50:09.235Z,1.13
2022-11-25T09:53:35.840Z,0.98
2022-11-25T09:56:51.360Z,1.13
2022-11-25T10:00:14.602Z,0.73
2022-11-25T10:03:43.109Z,0.70
2022-11-25T10:06:55.943Z,0.90
2022-11-25T10:10:10.333Z,1.05
2022-11-25T10:13:49.524Z,1.17
2022-11-25T10:17:31.253Z,1.20
2022-11-25T10:20:39.182Z,1.00
2022-11-25T10:23:43.771Z,1.48
2022-11-25T10:26:59.090Z,1.23
2022-11-25T10:30:21.501Z,1.17
2022-11-25T10:33:39.594Z,1.58
2022-11-25T10:36:45.312Z,1.65
2022-11-25T10:39:49.832Z,1.42
2022-11-25T10:42:54.939Z,1.08
2022-11-25T10:46:14.688Z,1.08
2022-11-25T10:49:27.628Z,1.30
2022-11-25T10:52:46.473Z,1.30
2022-11-25T10:56:05.223Z,1.20
2022-11-25T10:59:24.201Z,1.20
2022-11-25T11:02:42.672Z,1.30
2022-11-25T11:05:51.596Z,1.33
2022-11-25T11:08:56.217Z,1.35
2022-11-25T11:12:28.963Z,1.13
2022-11-25T11:15:42.772Z,1.40
2022-11-25T11:18:47.741Z,1.15
2022-11-25T11:21:55.172Z,1.20
2022-11-25T11:25:23.334Z,1.70
2022-11-25T11:28:37.247Z,1.38
2022-11-25T11:31:49.056Z,1.38
2022-11-25T11:35:20.753Z,1.60
2022-11-25T11:38:38.335Z,1.20
2022-11-25T11:42:24.127Z,1.58
2022-11-25T11:46:22.156Z,1.33
2022-11-25T11:49:46.219Z,1.10
2022-11-25T11:53:21.547Z,1.02
2022-11-25T11:56:37.833Z,1.15
2022-11-25T11:59:49.472Z,1.50
2022-11-25T12:03:13.158Z,1.17
2022-11-25T12:06:20.423Z,1.42
2022-11-25T12:09:28.672Z,1.75
2022-11-25T12:12:42.767Z,1.73
2022-11-25T12:16:10.391Z,1.73
2022-11-25T12:19:33.623Z,1.45
2022-11-25T12:22:58.181Z,1.30
2022-11-25T12:26:15.721Z,1.38
2022-11-25T12:29:35.486Z,1.25
2022-11-25T12:33:21.199Z,1.25
2022-11-25T12:36:40.772Z,1.52
2022-11-25T12:40:34.013Z,1.73
2022-11-25T12:44:06.187Z,1.20
2022-11-25T12:47:11.698Z,1.15
2022-11-25T12:50:42.963Z,1.50
2022-11-25T12:54:10.630Z,1.20
2022-11-25T12:57:47.507Z,1.27
2022-11-25T13:01:07.245Z,1.42
2022-11-25T13:04:31.724Z,1.02
2022-11-25T13:11:35.256Z,1.30
2022-11-25T13:15:01.586Z,1.20
2022-11-25T13:18:15.306Z,1.13
2022-11-25T13:21:20.312Z,1.10
2022-11-25T13:24:41.909Z,0.85
2022-11-25T13:27:46.568Z,1.05
2022-11-25T13:30:53.517Z,1.00
2022-11-25T13:33:58.492Z,1.23
2022-11-25T13:37:37.055Z,1.13
2022-11-25T13:40:42.250Z,1.10
2022-11-25T13:44:01.133Z,1.10
2022-11-25T13:47:35.056Z,1.10
2022-11-25T13:51:09.041Z,1.00
2022-11-25T13:54:07.280Z,1.10
2022-11-25T13:57:12.087Z,1.02
2022-11-25T14:00:19.102Z,1.00
2022-11-25T14:03:24.385Z,0.80
2022-11-25T14:07:05.305Z,1.00
2022-11-25T14:10:56.813Z,1.10
2022-11-25T14:14:33.152Z,1.10
2022-11-25T14:18:36.365Z,0.93
2022-11-25T14:22:32.705Z,0.80
2022-11-25T14:25:56.683Z,1.00
2022-11-25T14:29:13.775Z,0.80
2022-11-25T14:32:42.075Z,1.08
2022-11-25T14:35:58.703Z,1.10
2022-11-25T14:39:10.042Z,1.17
2022-11-25T14:42:18.849Z,1.10
2022-11-25T14:45:33.876Z,0.73
2022-11-25T14:48:38.802Z,0.90
2022-11-25T14:51:48.714Z,1.30
2022-11-25T14:54:56.775Z,1.00
2022-11-25T14:58:01.297Z,1.23
2022-11-25T15:01:16.604Z,0.90
2022-11-25T15:04:25.944Z,0.90
2022-11-25T15:07:31.505Z,0.70
2022-11-25T15:10:51.074Z,0.98
2022-11-25T15:14:06.904Z,0.95
2022-11-25T15:17:33.215Z,1.08
2022-11-25T15:20:37.841Z,0.82
2022-11-25T15:23:42.722Z,1.20
2022-11-25T15:26:55.630Z,1.33
2022-11-25T15:30:00.231Z,1.27
2022-11-25T15:33:05.731Z,0.90
2022-11-25T15:36:10.706Z,1.17
2022-11-25T15:39:26.130Z,1.10
2022-11-25T15:42:33.194Z,1.00
2022-11-25T15:45:45.697Z,1.10
2022-11-25T15:48:52.933Z,1.05
2022-11-25T15:52:05.944Z,1.25
2022-11-25T15:55:38.464Z,1.00
2022-11-25T15:58:43.159Z,1.00
2022-11-25T16:01:47.774Z,1.30
2022-11-25T16:04:52.445Z,1.10
2022-11-25T16:08:15.194Z,1.38
2022-11-25T16:11:20.070Z,1.50
2022-11-25T16:14:33.937Z,1.52
2022-11-25T16:17:38.342Z,1.48
2022-11-25T16:20:54.700Z,1.45
2022-11-25T16:24:05.667Z,1.58
2022-11-25T16:27:24.712Z,1.20
2022-11-25T16:30:29.782Z,1.15
2022-11-25T16:33:34.514Z,1.70
2022-11-25T16:36:38.905Z,2.05
2022-11-25T16:39:43.512Z,1.30
2022-11-25T16:42:50.032Z,1.60
2022-11-25T16:45:55.627Z,1.75
2022-11-25T16:49:11.629Z,2.10
2022-11-25T16:52:16.280Z,1.50
2022-11-25T16:55:21.287Z,1.40
2022-11-25T16:58:26.447Z,1.40
2022-11-25T17:01:34.318Z,1.17
2022-11-25T17:04:39.231Z,1.20
2022-11-25T17:07:44.362Z,1.38
2022-11-25T17:10:50.027Z,1.35
2022-11-25T17:13:55.424Z,1.20
2022-11-25T17:17:00.933Z,1.25
2022-11-25T17:20:14.363Z,1.50
2022-11-25T17:23:19.172Z,1.52
2022-11-25T17:26:39.776Z,1.60
2022-11-25T17:30:09.393Z,1.20
2022-11-25T17:33:20.778Z,1.55
2022-11-25T17:36:26.432Z,1.23
2022-11-25T17:39:31.143Z,1.33
2022-11-25T17:42:36.183Z,1.60
2022-11-25T17:45:41.418Z,2.08
2022-11-25T17:48:46.063Z,1.27
2022-11-25T17:51:51.064Z,1.63
2022-11-25T17:54:55.842Z,1.65
2022-11-25T17:58:01.884Z,1.55
2022-11-25T18:01:09.152Z,1.35
2022-11-25T18:04:21.350Z,1.92
2022-11-25T18:07:26.354Z,1.67
2022-11-25T18:10:31.304Z,1.48
2022-11-25T18:13:40.578Z,1.42
2022-11-25T18:16:45.956Z,1.80
2022-11-25T18:19:54.870Z,2.03
2022-11-25T18:23:01.089Z,1.70
2022-11-25T18:26:06.269Z,1.58
2022-11-25T18:29:21.573Z,1.42
2022-11-25T18:32:26.204Z,1.35
2022-11-25T18:35:36.764Z,1.73
2022-11-25T18:38:42.414Z,1.48
2022-11-25T18:41:48.085Z,1.50
2022-11-25T18:44:55.191Z,1.90
2022-11-25T18:48:00.500Z,1.42
2022-11-25T18:51:05.460Z,1.80
2022-11-25T18:54:10.676Z,1.75
2022-11-25T18:57:15.866Z,1.75
2022-11-25T19:00:33.308Z,2.50
2022-11-25T19:03:39.181Z,2.25
2022-11-25T19:06:44.533Z,2.20
2022-11-25T19:09:49.347Z,1.80
2022-11-25T19:13:00.050Z,2.35
2022-11-25T19:16:09.359Z,1.80
2022-11-25T19:19:16.786Z,1.85
2022-11-25T19:22:22.729Z,3.72
2022-11-25T19:25:27.377Z,4.10
2022-11-25T19:28:32.236Z,3.17
2022-11-25T19:31:37.242Z,3.65
2022-11-25T19:34:46.758Z,2.88
2022-11-25T19:37:51.114Z,2.05
2022-11-25T19:40:57.066Z,2.35
2022-11-25T19:44:01.900Z,2.03
2022-11-25T19:47:15.160Z,1.90
2022-11-25T19:50:27.222Z,2.00
2022-11-25T19:53:34.176Z,1.70
2022-11-25T19:56:40.216Z,1.63
2022-11-25T19:59:45.572Z,1.42
2022-11-25T20:02:53.959Z,1.38
2022-11-25T20:05:58.895Z,1.60
2022-11-25T20:09:07.864Z,1.42
2022-11-25T20:12:24.362Z,1.63
2022-11-25T20:15:28.997Z,1.90
2022-11-25T20:18:34.452Z,1.33
2022-11-25T20:21:40.609Z,2.58
2022-11-25T20:24:46.564Z,1.50
2022-11-25T20:27:51.445Z,1.85
2022-11-25T20:30:59.049Z,2.10
2022-11-25T20:34:03.238Z,1.60
2022-11-25T20:37:10.151Z,1.60
2022-11-25T20:40:20.169Z,1.65
2022-11-25T20:43:30.915Z,1.73
2022-11-25T20:46:35.604Z,1.73
2022-11-25T20:49:40.449Z,2.00
2022-11-25T20:52:46.914Z,1.98
2022-11-25T20:55:51.707Z,1.88
2022-11-25T20:58:57.046Z,2.42
2022-11-25T21:02:01.759Z,2.50
2022-11-25T21:05:06.823Z,2.70
2022-11-25T21:08:24.869Z,2.78
2022-11-25T21:11:33.012Z,2.13
2022-11-25T21:14:38.102Z,1.70
2022-11-25T21:17:42.800Z,1.77
2022-11-25T21:20:52.463Z,1.52
2022-11-25T21:23:57.342Z,2.65
2022-11-25T21:27:11.273Z,1.90
2022-11-25T21:30:26.104Z,2.33
2022-11-25T21:33:30.588Z,1.73
2022-11-25T21:36:35.065Z,2.00
2022-11-25T21:39:39.561Z,2.10
2022-11-25T21:42:44.260Z,2.08
2022-11-25T21:45:53.032Z,1.73
2022-11-25T21:48:58.029Z,2.25
2022-11-25T21:52:02.668Z,2.42
2022-11-25T21:55:07.394Z,1.98
2022-11-25T21:58:20.127Z,2.03
2022-11-25T22:01:25.455Z,2.45
2022-11-25T22:04:30.220Z,2.08
2022-11-25T22:07:34.709Z,2.28
2022-11-25T22:10:42.814Z,2.42
2022-11-25T22:13:49.274Z,2.22
2022-11-25T22:16:55.272Z,2.15
2022-11-25T22:19:59.778Z,2.65
2022-11-25T22:23:17.619Z,2.50
2022-11-25T22:26:34.102Z,2.15
2022-11-25T22:29:39.149Z,2.55
2022-11-25T22:32:46.581Z,2.40
2022-11-25T22:35:50.981Z,2.60
2022-11-25T22:38:56.251Z,2.13
2022-11-25T22:42:07.218Z,2.30
2022-11-25T22:45:31.178Z,2.25
2022-11-25T22:48:38.307Z,2.08
2022-11-25T22:51:43.002Z,2.20
2022-11-25T22:54:48.279Z,2.40
2022-11-25T22:57:56.429Z,2.35
2022-11-25T23:01:00.920Z,2.28
2022-11-25T23:04:06.679Z,2.30
2022-11-25T23:07:12.737Z,2.22
2022-11-25T23:10:27.563Z,2.30
2022-11-25T23:13:32.258Z,2.90
2022-11-25T23:16:38.448Z,2.20
2022-11-25T23:19:42.684Z,2.03
2022-11-25T23:22:47.814Z,1.98
2022-11-25T23:25:52.766Z,2.17
2022-11-25T23:28:57.341Z,2.30
2022-11-25T23:32:15.269Z,2.05
2022-11-25T23:35:27.595Z,2.08
2022-11-25T23:38:31.991Z,2.30
2022-11-25T23:41:36.375Z,1.95
2022-11-25T23:44:40.850Z,2.20
2022-11-25T23:47:48.649Z,2.03
2022-11-25T23:50:56.822Z,2.30
2022-11-25T23:54:01.590Z,2.03
2022-11-25T23:57:18.082Z,1.92
